sensor_id;sensor_type;location;lat;lon;timestamp;P1;durP1;ratioP1;P2;durP2;ratioP2
23596;SDS011;40226;50.874;4.394;2023-03-11T00:00:13;12.35;;;4.97;;
23596;SDS011;40226;50.874;4.394;2023-03-11T00:02:41;20.92;;;4.57;;
23596;SDS011;40226;50.874;4.394;2023-03-11T00:05:08;13.18;;;4.63;;
23596;SDS011;40226;50.874;4.394;2023-03-11T00:07:38;14.52;;;4.72;;
23596;SDS011;40226;50.874;4.394;2023-03-11T00:10:04;14.95;;;4.68;;
23596;SDS011;40226;50.874;4.394;2023-03-11T00:12:31;12.68;;;4.88;;
23596;SDS011;40226;50.874;4.394;2023-03-11T00:14:56;12.43;;;5.15;;
23596;SDS011;40226;50.874;4.394;2023-03-11T00:17:22;10.90;;;4.75;;
23596;SDS011;40226;50.874;4.394;2023-03-11T00:19:47;12.77;;;4.57;;
23596;SDS011;40226;50.874;4.394;2023-03-11T00:22:13;10.95;;;4.22;;
23596;SDS011;40226;50.874;4.394;2023-03-11T00:24:39;14.00;;;4.90;;
23596;SDS011;40226;50.874;4.394;2023-03-11T00:27:04;13.15;;;4.80;;
23596;SDS011;40226;50.874;4.394;2023-03-11T00:29:30;15.25;;;4.20;;
23596;SDS011;40226;50.874;4.394;2023-03-11T00:31:56;11.13;;;3.85;;
23596;SDS011;40226;50.874;4.394;2023-03-11T00:34:22;13.40;;;3.67;;
23596;SDS011;40226;50.874;4.394;2023-03-11T00:36:49;16.10;;;4.30;;
23596;SDS011;40226;50.874;4.394;2023-03-11T00:39:15;14.15;;;4.70;;
23596;SDS011;40226;50.874;4.394;2023-03-11T00:41:40;12.73;;;4.55;;
23596;SDS011;40226;50.874;4.394;2023-03-11T00:44:06;17.98;;;5.20;;
23596;SDS011;40226;50.874;4.394;2023-03-11T00:46:32;16.00;;;4.90;;
23596;SDS011;40226;50.874;4.394;2023-03-11T00:48:57;17.75;;;5.00;;
23596;SDS011;40226;50.874;4.394;2023-03-11T00:51:23;13.98;;;4.32;;
23596;SDS011;40226;50.874;4.394;2023-03-11T00:53:48;12.82;;;4.60;;
23596;SDS011;40226;50.874;4.394;2023-03-11T00:56:14;14.02;;;4.75;;
23596;SDS011;40226;50.874;4.394;2023-03-11T00:58:42;14.18;;;4.47;;
23596;SDS011;40226;50.874;4.394;2023-03-11T01:01:13;13.05;;;5.00;;
23596;SDS011;40226;50.874;4.394;2023-03-11T01:03:42;17.67;;;5.00;;
23596;SDS011;40226;50.874;4.394;2023-03-11T01:06:08;12.88;;;4.45;;
23596;SDS011;40226;50.874;4.394;2023-03-11T01:08:34;16.73;;;5.07;;
23596;SDS011;40226;50.874;4.394;2023-03-11T01:11:00;22.08;;;6.07;;
23596;SDS011;40226;50.874;4.394;2023-03-11T01:13:27;20.90;;;6.15;;
23596;SDS011;40226;50.874;4.394;2023-03-11T01:15:54;15.75;;;5.30;;
23596;SDS011;40226;50.874;4.394;2023-03-11T01:18:21;22.10;;;5.80;;
23596;SDS011;40226;50.874;4.394;2023-03-11T01:20:47;11.82;;;4.93;;
23596;SDS011;40226;50.874;4.394;2023-03-11T01:23:14;20.30;;;4.53;;
23596;SDS011;40226;50.874;4.394;2023-03-11T01:25:40;13.23;;;4.40;;
23596;SDS011;40226;50.874;4.394;2023-03-11T01:28:06;17.08;;;5.53;;
23596;SDS011;40226;50.874;4.394;2023-03-11T01:30:33;11.63;;;5.15;;
23596;SDS011;40226;50.874;4.394;2023-03-11T01:33:00;14.18;;;5.93;;
23596;SDS011;40226;50.874;4.394;2023-03-11T01:35:27;17.08;;;5.85;;
23596;SDS011;40226;50.874;4.394;2023-03-11T01:37:54;17.90;;;5.40;;
23596;SDS011;40226;50.874;4.394;2023-03-11T01:43:00;15.38;;;5.15;;
23596;SDS011;40226;50.874;4.394;2023-03-11T01:47:53;14.68;;;5.35;;
23596;SDS011;40226;50.874;4.394;2023-03-11T01:50:19;17.58;;;5.90;;
23596;SDS011;40226;50.874;4.394;2023-03-11T01:52:45;15.65;;;5.65;;
23596;SDS011;40226;50.874;4.394;2023-03-11T01:55:12;15.23;;;4.88;;
23596;SDS011;40226;50.874;4.394;2023-03-11T01:57:40;18.40;;;4.85;;
23596;SDS011;40226;50.874;4.394;2023-03-11T02:00:10;20.73;;;5.30;;
23596;SDS011;40226;50.874;4.394;2023-03-11T02:02:50;15.50;;;5.38;;
23596;SDS011;40226;50.874;4.394;2023-03-11T02:05:19;14.15;;;5.65;;
23596;SDS011;40226;50.874;4.394;2023-03-11T02:07:46;14.23;;;5.03;;
23596;SDS011;40226;50.874;4.394;2023-03-11T02:10:14;11.98;;;4.55;;
23596;SDS011;40226;50.874;4.394;2023-03-11T02:12:40;15.20;;;4.60;;
23596;SDS011;40226;50.874;4.394;2023-03-11T02:15:07;16.02;;;4.93;;
23596;SDS011;40226;50.874;4.394;2023-03-11T02:17:34;17.27;;;5.03;;
23596;SDS011;40226;50.874;4.394;2023-03-11T02:23:04;17.05;;;5.88;;
23596;SDS011;40226;50.874;4.394;2023-03-11T02:27:58;13.82;;;4.95;;
23596;SDS011;40226;50.874;4.394;2023-03-11T02:30:27;24.40;;;4.85;;
23596;SDS011;40226;50.874;4.394;2023-03-11T02:32:53;10.88;;;4.50;;
23596;SDS011;40226;50.874;4.394;2023-03-11T02:35:20;16.63;;;5.57;;
23596;SDS011;40226;50.874;4.394;2023-03-11T02:37:46;18.42;;;5.57;;
23596;SDS011;40226;50.874;4.394;2023-03-11T02:42:58;13.98;;;5.28;;
23596;SDS011;40226;50.874;4.394;2023-03-11T02:45:27;12.02;;;4.65;;
23596;SDS011;40226;50.874;4.394;2023-03-11T02:47:55;16.63;;;5.15;;
23596;SDS011;40226;50.874;4.394;2023-03-11T02:50:22;19.75;;;5.75;;
23596;SDS011;40226;50.874;4.394;2023-03-11T02:52:52;12.52;;;4.82;;
23596;SDS011;40226;50.874;4.394;2023-03-11T02:55:19;11.38;;;4.88;;
23596;SDS011;40226;50.874;4.394;2023-03-11T02:57:48;15.40;;;5.13;;
23596;SDS011;40226;50.874;4.394;2023-03-11T03:00:15;19.52;;;5.13;;
23596;SDS011;40226;50.874;4.394;2023-03-11T03:02:41;15.90;;;5.25;;
23596;SDS011;40226;50.874;4.394;2023-03-11T03:05:09;13.25;;;5.53;;
23596;SDS011;40226;50.874;4.394;2023-03-11T03:07:35;17.63;;;5.32;;
23596;SDS011;40226;50.874;4.394;2023-03-11T03:10:02;15.43;;;5.40;;
23596;SDS011;40226;50.874;4.394;2023-03-11T03:12:29;16.20;;;5.45;;
23596;SDS011;40226;50.874;4.394;2023-03-11T03:14:55;21.38;;;5.43;;
23596;SDS011;40226;50.874;4.394;2023-03-11T03:17:22;13.82;;;5.07;;
23596;SDS011;40226;50.874;4.394;2023-03-11T03:19:48;16.27;;;5.63;;
23596;SDS011;40226;50.874;4.394;2023-03-11T03:22:13;13.55;;;5.43;;
23596;SDS011;40226;50.874;4.394;2023-03-11T03:24:39;15.48;;;5.60;;
23596;SDS011;40226;50.874;4.394;2023-03-11T03:27:05;17.52;;;6.50;;
23596;SDS011;40226;50.874;4.394;2023-03-11T03:29:31;14.80;;;4.90;;
23596;SDS011;40226;50.874;4.394;2023-03-11T03:31:56;14.63;;;5.60;;
23596;SDS011;40226;50.874;4.394;2023-03-11T03:34:22;12.65;;;5.53;;
23596;SDS011;40226;50.874;4.394;2023-03-11T03:36:48;13.57;;;5.10;;
23596;SDS011;40226;50.874;4.394;2023-03-11T03:39:13;15.90;;;5.90;;
23596;SDS011;40226;50.874;4.394;2023-03-11T03:41:40;13.15;;;4.97;;
23596;SDS011;40226;50.874;4.394;2023-03-11T03:44:05;11.00;;;5.60;;
23596;SDS011;40226;50.874;4.394;2023-03-11T03:46:31;14.50;;;5.22;;
23596;SDS011;40226;50.874;4.394;2023-03-11T03:48:57;22.67;;;6.05;;
23596;SDS011;40226;50.874;4.394;2023-03-11T03:51:22;15.43;;;5.43;;
23596;SDS011;40226;50.874;4.394;2023-03-11T03:53:48;14.30;;;5.63;;
23596;SDS011;40226;50.874;4.394;2023-03-11T03:56:15;11.25;;;5.18;;
23596;SDS011;40226;50.874;4.394;2023-03-11T03:58:42;15.48;;;6.18;;
23596;SDS011;40226;50.874;4.394;2023-03-11T04:01:08;15.15;;;6.00;;
23596;SDS011;40226;50.874;4.394;2023-03-11T04:03:39;16.17;;;5.22;;
23596;SDS011;40226;50.874;4.394;2023-03-11T04:06:18;14.25;;;6.18;;
23596;SDS011;40226;50.874;4.394;2023-03-11T04:08:46;14.27;;;5.50;;
23596;SDS011;40226;50.874;4.394;2023-03-11T04:11:11;12.80;;;5.85;;
23596;SDS011;40226;50.874;4.394;2023-03-11T04:13:37;12.73;;;5.00;;
23596;SDS011;40226;50.874;4.394;2023-03-11T04:16:04;15.23;;;5.72;;
23596;SDS011;40226;50.874;4.394;2023-03-11T04:18:31;17.45;;;5.15;;
23596;SDS011;40226;50.874;4.394;2023-03-11T04:20:56;16.85;;;5.95;;
23596;SDS011;40226;50.874;4.394;2023-03-11T04:23:22;17.77;;;5.63;;
23596;SDS011;40226;50.874;4.394;2023-03-11T04:25:48;12.80;;;5.43;;
23596;SDS011;40226;50.874;4.394;2023-03-11T04:28:14;17.17;;;5.93;;
23596;SDS011;40226;50.874;4.394;2023-03-11T04:30:40;16.52;;;5.78;;
23596;SDS011;40226;50.874;4.394;2023-03-11T04:33:05;15.73;;;6.00;;
23596;SDS011;40226;50.874;4.394;2023-03-11T04:35:31;18.98;;;5.95;;
23596;SDS011;40226;50.874;4.394;2023-03-11T04:37:57;15.88;;;5.88;;
23596;SDS011;40226;50.874;4.394;2023-03-11T04:40:24;23.02;;;5.65;;
23596;SDS011;40226;50.874;4.394;2023-03-11T04:42:50;15.52;;;6.00;;
23596;SDS011;40226;50.874;4.394;2023-03-11T04:45:17;13.00;;;5.85;;
23596;SDS011;40226;50.874;4.394;2023-03-11T04:47:45;20.42;;;5.65;;
23596;SDS011;40226;50.874;4.394;2023-03-11T04:50:12;18.55;;;5.70;;
23596;SDS011;40226;50.874;4.394;2023-03-11T04:52:38;19.48;;;6.00;;
23596;SDS011;40226;50.874;4.394;2023-03-11T04:55:04;12.98;;;6.00;;
23596;SDS011;40226;50.874;4.394;2023-03-11T04:57:30;16.45;;;6.40;;
23596;SDS011;40226;50.874;4.394;2023-03-11T04:59:55;19.80;;;6.40;;
23596;SDS011;40226;50.874;4.394;2023-03-11T05:02:21;16.67;;;6.45;;
23596;SDS011;40226;50.874;4.394;2023-03-11T05:04:47;14.75;;;6.10;;
23596;SDS011;40226;50.874;4.394;2023-03-11T05:07:12;15.93;;;5.88;;
23596;SDS011;40226;50.874;4.394;2023-03-11T05:09:38;18.05;;;9.75;;
23596;SDS011;40226;50.874;4.394;2023-03-11T05:12:04;23.65;;;7.20;;
23596;SDS011;40226;50.874;4.394;2023-03-11T05:14:30;17.02;;;6.90;;
23596;SDS011;40226;50.874;4.394;2023-03-11T05:16:56;24.90;;;7.18;;
23596;SDS011;40226;50.874;4.394;2023-03-11T05:19:21;22.20;;;6.60;;
23596;SDS011;40226;50.874;4.394;2023-03-11T05:21:56;14.85;;;6.88;;
23596;SDS011;40226;50.874;4.394;2023-03-11T05:24:22;13.50;;;6.72;;
23596;SDS011;40226;50.874;4.394;2023-03-11T05:26:50;20.38;;;7.50;;
23596;SDS011;40226;50.874;4.394;2023-03-11T05:29:16;22.90;;;7.32;;
23596;SDS011;40226;50.874;4.394;2023-03-11T05:31:42;16.73;;;6.55;;
23596;SDS011;40226;50.874;4.394;2023-03-11T05:34:08;15.07;;;6.63;;
23596;SDS011;40226;50.874;4.394;2023-03-11T05:36:34;19.38;;;7.25;;
23596;SDS011;40226;50.874;4.394;2023-03-11T05:39:00;17.27;;;6.72;;
23596;SDS011;40226;50.874;4.394;2023-03-11T05:41:25;28.20;;;7.40;;
23596;SDS011;40226;50.874;4.394;2023-03-11T05:43:51;24.10;;;7.47;;
23596;SDS011;40226;50.874;4.394;2023-03-11T05:46:17;15.52;;;6.93;;
23596;SDS011;40226;50.874;4.394;2023-03-11T05:48:43;16.55;;;7.50;;
23596;SDS011;40226;50.874;4.394;2023-03-11T05:51:09;17.63;;;7.80;;
23596;SDS011;40226;50.874;4.394;2023-03-11T05:53:36;21.33;;;8.25;;
23596;SDS011;40226;50.874;4.394;2023-03-11T05:56:02;15.65;;;7.70;;
23596;SDS011;40226;50.874;4.394;2023-03-11T05:58:29;17.88;;;7.85;;
23596;SDS011;40226;50.874;4.394;2023-03-11T06:00:56;21.45;;;8.93;;
23596;SDS011;40226;50.874;4.394;2023-03-11T06:03:23;15.18;;;7.57;;
23596;SDS011;40226;50.874;4.394;2023-03-11T06:05:49;20.63;;;8.52;;
23596;SDS011;40226;50.874;4.394;2023-03-11T06:08:16;18.98;;;8.23;;
23596;SDS011;40226;50.874;4.394;2023-03-11T06:10:42;16.63;;;8.05;;
23596;SDS011;40226;50.874;4.394;2023-03-11T06:13:09;20.25;;;8.73;;
23596;SDS011;40226;50.874;4.394;2023-03-11T06:15:35;18.20;;;8.02;;
23596;SDS011;40226;50.874;4.394;2023-03-11T06:18:01;24.55;;;8.68;;
23596;SDS011;40226;50.874;4.394;2023-03-11T06:20:28;22.48;;;8.93;;
23596;SDS011;40226;50.874;4.394;2023-03-11T06:22:54;27.73;;;9.00;;
23596;SDS011;40226;50.874;4.394;2023-03-11T06:25:20;20.08;;;10.18;;
23596;SDS011;40226;50.874;4.394;2023-03-11T06:27:49;18.48;;;8.50;;
23596;SDS011;40226;50.874;4.394;2023-03-11T06:30:16;20.92;;;8.23;;
23596;SDS011;40226;50.874;4.394;2023-03-11T06:32:44;19.50;;;8.90;;
23596;SDS011;40226;50.874;4.394;2023-03-11T06:35:10;22.73;;;8.55;;
23596;SDS011;40226;50.874;4.394;2023-03-11T06:37:36;22.88;;;8.65;;
23596;SDS011;40226;50.874;4.394;2023-03-11T06:40:03;21.25;;;8.43;;
23596;SDS011;40226;50.874;4.394;2023-03-11T06:42:31;16.23;;;8.20;;
23596;SDS011;40226;50.874;4.394;2023-03-11T06:44:57;14.95;;;8.40;;
23596;SDS011;40226;50.874;4.394;2023-03-11T06:47:23;20.67;;;8.63;;
23596;SDS011;40226;50.874;4.394;2023-03-11T06:49:49;16.95;;;8.38;;
23596;SDS011;40226;50.874;4.394;2023-03-11T06:52:15;16.45;;;8.20;;
23596;SDS011;40226;50.874;4.394;2023-03-11T06:54:41;22.80;;;8.63;;
23596;SDS011;40226;50.874;4.394;2023-03-11T06:57:07;24.35;;;8.85;;
23596;SDS011;40226;50.874;4.394;2023-03-11T06:59:33;19.13;;;7.95;;
23596;SDS011;40226;50.874;4.394;2023-03-11T07:02:00;16.70;;;8.02;;
23596;SDS011;40226;50.874;4.394;2023-03-11T07:04:26;15.98;;;8.07;;
23596;SDS011;40226;50.874;4.394;2023-03-11T07:06:52;16.48;;;9.15;;
23596;SDS011;40226;50.874;4.394;2023-03-11T07:09:17;18.95;;;8.40;;
23596;SDS011;40226;50.874;4.394;2023-03-11T07:11:46;22.98;;;9.05;;
23596;SDS011;40226;50.874;4.394;2023-03-11T07:14:11;26.48;;;8.73;;
23596;SDS011;40226;50.874;4.394;2023-03-11T07:16:37;21.40;;;12.25;;
23596;SDS011;40226;50.874;4.394;2023-03-11T07:19:03;18.30;;;8.57;;
23596;SDS011;40226;50.874;4.394;2023-03-11T07:21:29;19.25;;;9.50;;
23596;SDS011;40226;50.874;4.394;2023-03-11T07:23:56;29.08;;;9.43;;
23596;SDS011;40226;50.874;4.394;2023-03-11T07:26:24;20.50;;;9.00;;
23596;SDS011;40226;50.874;4.394;2023-03-11T07:28:52;26.33;;;9.50;;
23596;SDS011;40226;50.874;4.394;2023-03-11T07:31:20;21.33;;;9.40;;
23596;SDS011;40226;50.874;4.394;2023-03-11T07:33:48;23.73;;;9.15;;
23596;SDS011;40226;50.874;4.394;2023-03-11T07:36:15;26.45;;;9.38;;
23596;SDS011;40226;50.874;4.394;2023-03-11T07:38:42;20.98;;;8.23;;
23596;SDS011;40226;50.874;4.394;2023-03-11T07:41:09;18.20;;;8.25;;
23596;SDS011;40226;50.874;4.394;2023-03-11T07:43:36;18.85;;;7.60;;
23596;SDS011;40226;50.874;4.394;2023-03-11T07:48:28;19.98;;;8.95;;
23596;SDS011;40226;50.874;4.394;2023-03-11T07:51:27;25.27;;;8.52;;
23596;SDS011;40226;50.874;4.394;2023-03-11T07:53:47;19.93;;;8.80;;
23596;SDS011;40226;50.874;4.394;2023-03-11T07:56:13;21.90;;;7.80;;
23596;SDS011;40226;50.874;4.394;2023-03-11T07:58:40;24.15;;;7.70;;
23596;SDS011;40226;50.874;4.394;2023-03-11T08:01:08;14.93;;;7.20;;
23596;SDS011;40226;50.874;4.394;2023-03-11T08:03:42;25.55;;;7.88;;
23596;SDS011;40226;50.874;4.394;2023-03-11T08:06:16;20.02;;;8.43;;
23596;SDS011;40226;50.874;4.394;2023-03-11T08:08:43;23.92;;;8.90;;
23596;SDS011;40226;50.874;4.394;2023-03-11T08:11:10;20.45;;;7.85;;
23596;SDS011;40226;50.874;4.394;2023-03-11T08:13:37;18.00;;;8.23;;
23596;SDS011;40226;50.874;4.394;2023-03-11T08:16:13;22.35;;;7.93;;
23596;SDS011;40226;50.874;4.394;2023-03-11T08:18:40;20.45;;;7.53;;
23596;SDS011;40226;50.874;4.394;2023-03-11T08:21:07;17.75;;;8.18;;
23596;SDS011;40226;50.874;4.394;2023-03-11T08:23:35;17.50;;;7.10;;
23596;SDS011;40226;50.874;4.394;2023-03-11T08:26:07;17.95;;;8.38;;
23596;SDS011;40226;50.874;4.394;2023-03-11T08:28:35;21.92;;;9.38;;
23596;SDS011;40226;50.874;4.394;2023-03-11T08:31:01;18.45;;;7.85;;
23596;SDS011;40226;50.874;4.394;2023-03-11T08:33:27;18.88;;;8.48;;
23596;SDS011;40226;50.874;4.394;2023-03-11T08:35:53;20.95;;;7.95;;
23596;SDS011;40226;50.874;4.394;2023-03-11T08:38:19;18.50;;;8.55;;
23596;SDS011;40226;50.874;4.394;2023-03-11T08:40:45;21.63;;;7.78;;
23596;SDS011;40226;50.874;4.394;2023-03-11T08:43:12;18.35;;;7.57;;
23596;SDS011;40226;50.874;4.394;2023-03-11T08:45:42;18.27;;;7.78;;
23596;SDS011;40226;50.874;4.394;2023-03-11T08:48:08;21.38;;;9.73;;
23596;SDS011;40226;50.874;4.394;2023-03-11T08:50:38;19.15;;;7.07;;
23596;SDS011;40226;50.874;4.394;2023-03-11T08:53:05;20.30;;;7.22;;
23596;SDS011;40226;50.874;4.394;2023-03-11T08:55:31;21.38;;;7.68;;
23596;SDS011;40226;50.874;4.394;2023-03-11T08:57:56;21.13;;;8.10;;
23596;SDS011;40226;50.874;4.394;2023-03-11T09:00:22;21.88;;;8.75;;
23596;SDS011;40226;50.874;4.394;2023-03-11T09:02:47;16.23;;;7.32;;
23596;SDS011;40226;50.874;4.394;2023-03-11T09:05:13;19.35;;;7.53;;
23596;SDS011;40226;50.874;4.394;2023-03-11T09:07:39;20.05;;;7.32;;
23596;SDS011;40226;50.874;4.394;2023-03-11T09:10:05;16.23;;;6.90;;
23596;SDS011;40226;50.874;4.394;2023-03-11T09:12:32;16.80;;;6.63;;
23596;SDS011;40226;50.874;4.394;2023-03-11T09:14:58;13.05;;;6.15;;
23596;SDS011;40226;50.874;4.394;2023-03-11T09:17:23;14.00;;;5.38;;
23596;SDS011;40226;50.874;4.394;2023-03-11T09:19:49;19.10;;;5.57;;
23596;SDS011;40226;50.874;4.394;2023-03-11T09:22:15;18.20;;;5.03;;
23596;SDS011;40226;50.874;4.394;2023-03-11T09:24:40;13.27;;;4.15;;
23596;SDS011;40226;50.874;4.394;2023-03-11T09:27:06;13.13;;;5.00;;
23596;SDS011;40226;50.874;4.394;2023-03-11T09:29:34;9.05;;;4.35;;
23596;SDS011;40226;50.874;4.394;2023-03-11T09:32:00;16.35;;;3.88;;
23596;SDS011;40226;50.874;4.394;2023-03-11T09:34:26;8.43;;;2.42;;
23596;SDS011;40226;50.874;4.394;2023-03-11T09:36:51;10.27;;;2.80;;
23596;SDS011;40226;50.874;4.394;2023-03-11T09:39:17;13.02;;;3.03;;
23596;SDS011;40226;50.874;4.394;2023-03-11T09:41:53;15.45;;;4.20;;
23596;SDS011;40226;50.874;4.394;2023-03-11T09:44:31;14.07;;;3.63;;
23596;SDS011;40226;50.874;4.394;2023-03-11T09:53:02;9.45;;;2.40;;
23596;SDS011;40226;50.874;4.394;2023-03-11T09:55:45;15.63;;;2.72;;
23596;SDS011;40226;50.874;4.394;2023-03-11T10:01:19;15.55;;;3.53;;
23596;SDS011;40226;50.874;4.394;2023-03-11T10:04:17;10.77;;;2.67;;
23596;SDS011;40226;50.874;4.394;2023-03-11T10:06:44;16.67;;;3.58;;
23596;SDS011;40226;50.874;4.394;2023-03-11T10:20:14;8.77;;;2.75;;
23596;SDS011;40226;50.874;4.394;2023-03-11T10:28:36;10.10;;;3.03;;
23596;SDS011;40226;50.874;4.394;2023-03-11T10:31:20;8.70;;;3.47;;
23596;SDS011;40226;50.874;4.394;2023-03-11T10:33:55;14.95;;;3.58;;
23596;SDS011;40226;50.874;4.394;2023-03-11T10:36:28;10.13;;;2.40;;
23596;SDS011;40226;50.874;4.394;2023-03-11T10:39:04;12.13;;;3.20;;
23596;SDS011;40226;50.874;4.394;2023-03-11T10:41:39;8.95;;;2.90;;
23596;SDS011;40226;50.874;4.394;2023-03-11T10:46:45;13.50;;;3.70;;
23596;SDS011;40226;50.874;4.394;2023-03-11T10:49:14;7.30;;;3.05;;
23596;SDS011;40226;50.874;4.394;2023-03-11T10:51:44;10.77;;;3.35;;
23596;SDS011;40226;50.874;4.394;2023-03-11T10:54:25;17.60;;;3.40;;
23596;SDS011;40226;50.874;4.394;2023-03-11T10:57:08;18.60;;;4.43;;
23596;SDS011;40226;50.874;4.394;2023-03-11T10:59:47;11.57;;;3.30;;
23596;SDS011;40226;50.874;4.394;2023-03-11T11:02:30;7.80;;;2.30;;
23596;SDS011;40226;50.874;4.394;2023-03-11T11:05:03;8.15;;;2.88;;
23596;SDS011;40226;50.874;4.394;2023-03-11T11:07:42;6.00;;;2.88;;
23596;SDS011;40226;50.874;4.394;2023-03-11T11:12:54;9.35;;;2.60;;
23596;SDS011;40226;50.874;4.394;2023-03-11T11:15:42;6.13;;;2.70;;
23596;SDS011;40226;50.874;4.394;2023-03-11T11:26:20;13.05;;;3.15;;
23596;SDS011;40226;50.874;4.394;2023-03-11T11:29:04;9.90;;;2.90;;
23596;SDS011;40226;50.874;4.394;2023-03-11T11:31:29;10.35;;;2.78;;
23596;SDS011;40226;50.874;4.394;2023-03-11T11:33:55;9.98;;;3.10;;
23596;SDS011;40226;50.874;4.394;2023-03-11T11:36:26;19.52;;;3.47;;
23596;SDS011;40226;50.874;4.394;2023-03-11T11:38:57;14.65;;;3.08;;
23596;SDS011;40226;50.874;4.394;2023-03-11T11:41:27;9.65;;;3.45;;
23596;SDS011;40226;50.874;4.394;2023-03-11T11:43:59;11.38;;;3.08;;
23596;SDS011;40226;50.874;4.394;2023-03-11T11:46:40;6.53;;;2.45;;
23596;SDS011;40226;50.874;4.394;2023-03-11T11:49:18;8.03;;;2.47;;
23596;SDS011;40226;50.874;4.394;2023-03-11T11:51:49;12.00;;;3.17;;
23596;SDS011;40226;50.874;4.394;2023-03-11T11:56:57;11.10;;;3.63;;
23596;SDS011;40226;50.874;4.394;2023-03-11T11:59:25;8.77;;;3.75;;
23596;SDS011;40226;50.874;4.394;2023-03-11T12:01:57;8.75;;;3.58;;
23596;SDS011;40226;50.874;4.394;2023-03-11T12:10:22;9.20;;;3.42;;
23596;SDS011;40226;50.874;4.394;2023-03-11T12:15:42;11.63;;;3.30;;
23596;SDS011;40226;50.874;4.394;2023-03-11T12:18:22;13.02;;;3.40;;
23596;SDS011;40226;50.874;4.394;2023-03-11T12:20:59;10.98;;;3.75;;
23596;SDS011;40226;50.874;4.394;2023-03-11T12:23:59;13.88;;;4.53;;
23596;SDS011;40226;50.874;4.394;2023-03-11T12:26:35;9.40;;;3.60;;
23596;SDS011;40226;50.874;4.394;2023-03-11T12:29:12;11.45;;;4.13;;
23596;SDS011;40226;50.874;4.394;2023-03-11T12:31:52;10.23;;;4.10;;
23596;SDS011;40226;50.874;4.394;2023-03-11T12:34:20;10.88;;;3.90;;
23596;SDS011;40226;50.874;4.394;2023-03-11T12:36:49;11.18;;;4.05;;
23596;SDS011;40226;50.874;4.394;2023-03-11T12:39:29;19.50;;;5.43;;
23596;SDS011;40226;50.874;4.394;2023-03-11T12:44:35;11.30;;;4.53;;
23596;SDS011;40226;50.874;4.394;2023-03-11T12:47:18;13.75;;;4.10;;
23596;SDS011;40226;50.874;4.394;2023-03-11T12:49:49;26.30;;;4.53;;
23596;SDS011;40226;50.874;4.394;2023-03-11T12:52:19;14.70;;;4.70;;
23596;SDS011;40226;50.874;4.394;2023-03-11T12:57:34;13.07;;;5.00;;
23596;SDS011;40226;50.874;4.394;2023-03-11T13:05:49;17.83;;;4.10;;
23596;SDS011;40226;50.874;4.394;2023-03-11T13:11:05;8.48;;;3.50;;
23596;SDS011;40226;50.874;4.394;2023-03-11T13:13:52;8.23;;;3.55;;
23596;SDS011;40226;50.874;4.394;2023-03-11T13:20:01;12.35;;;3.70;;
23596;SDS011;40226;50.874;4.394;2023-03-11T13:21:57;10.30;;;3.47;;
23596;SDS011;40226;50.874;4.394;2023-03-11T13:26:58;11.25;;;3.85;;
23596;SDS011;40226;50.874;4.394;2023-03-11T13:38:32;9.93;;;3.42;;
23596;SDS011;40226;50.874;4.394;2023-03-11T13:46:49;8.88;;;3.28;;
23596;SDS011;40226;50.874;4.394;2023-03-11T13:49:29;6.45;;;2.92;;
23596;SDS011;40226;50.874;4.394;2023-03-11T13:51:56;10.65;;;2.75;;
23596;SDS011;40226;50.874;4.394;2023-03-11T13:54:31;11.73;;;2.90;;
23596;SDS011;40226;50.874;4.394;2023-03-11T13:57:19;9.90;;;2.63;;
23596;SDS011;40226;50.874;4.394;2023-03-11T13:59:55;15.25;;;3.35;;
23596;SDS011;40226;50.874;4.394;2023-03-11T14:02:22;8.30;;;2.72;;
23596;SDS011;40226;50.874;4.394;2023-03-11T14:04:52;6.78;;;2.83;;
23596;SDS011;40226;50.874;4.394;2023-03-11T14:09:48;8.23;;;3.22;;
23596;SDS011;40226;50.874;4.394;2023-03-11T14:12:13;7.13;;;2.80;;
23596;SDS011;40226;50.874;4.394;2023-03-11T14:17:13;8.07;;;2.58;;
23596;SDS011;40226;50.874;4.394;2023-03-11T14:19:40;6.88;;;2.60;;
23596;SDS011;40226;50.874;4.394;2023-03-11T14:22:07;6.03;;;2.50;;
23596;SDS011;40226;50.874;4.394;2023-03-11T14:24:33;8.85;;;2.90;;
23596;SDS011;40226;50.874;4.394;2023-03-11T14:27:00;8.85;;;2.88;;
23596;SDS011;40226;50.874;4.394;2023-03-11T14:29:32;13.30;;;2.75;;
23596;SDS011;40226;50.874;4.394;2023-03-11T14:34:45;9.27;;;2.50;;
23596;SDS011;40226;50.874;4.394;2023-03-11T14:37:54;9.27;;;2.53;;
23596;SDS011;40226;50.874;4.394;2023-03-11T14:40:03;7.50;;;2.50;;
23596;SDS011;40226;50.874;4.394;2023-03-11T14:42:47;5.13;;;2.13;;
23596;SDS011;40226;50.874;4.394;2023-03-11T14:45:17;9.60;;;3.08;;
23596;SDS011;40226;50.874;4.394;2023-03-11T14:48:04;6.28;;;2.70;;
23596;SDS011;40226;50.874;4.394;2023-03-11T14:50:33;4.47;;;1.90;;
23596;SDS011;40226;50.874;4.394;2023-03-11T14:53:01;7.05;;;2.20;;
23596;SDS011;40226;50.874;4.394;2023-03-11T14:55:40;14.30;;;2.67;;
23596;SDS011;40226;50.874;4.394;2023-03-11T14:59:03;8.27;;;2.40;;
23596;SDS011;40226;50.874;4.394;2023-03-11T15:01:19;8.68;;;1.95;;
23596;SDS011;40226;50.874;4.394;2023-03-11T15:03:57;5.13;;;1.60;;
23596;SDS011;40226;50.874;4.394;2023-03-11T15:06:37;5.43;;;2.03;;
23596;SDS011;40226;50.874;4.394;2023-03-11T15:09:07;9.38;;;1.92;;
23596;SDS011;40226;50.874;4.394;2023-03-11T15:14:24;5.72;;;2.33;;
23596;SDS011;40226;50.874;4.394;2023-03-11T15:16:50;9.27;;;1.83;;
23596;SDS011;40226;50.874;4.394;2023-03-11T15:21:52;4.60;;;1.80;;
23596;SDS011;40226;50.874;4.394;2023-03-11T15:24:29;16.27;;;7.00;;
23596;SDS011;40226;50.874;4.394;2023-03-11T15:29:33;10.32;;;2.30;;
23596;SDS011;40226;50.874;4.394;2023-03-11T15:32:22;6.38;;;2.45;;
23596;SDS011;40226;50.874;4.394;2023-03-11T15:42:47;6.03;;;2.38;;
23596;SDS011;40226;50.874;4.394;2023-03-11T15:45:15;6.03;;;2.00;;
23596;SDS011;40226;50.874;4.394;2023-03-11T15:47:42;7.32;;;2.85;;
23596;SDS011;40226;50.874;4.394;2023-03-11T15:52:39;6.70;;;2.17;;
23596;SDS011;40226;50.874;4.394;2023-03-11T15:55:05;6.80;;;2.28;;
23596;SDS011;40226;50.874;4.394;2023-03-11T15:57:33;9.32;;;2.72;;
23596;SDS011;40226;50.874;4.394;2023-03-11T15:59:59;7.07;;;2.28;;
23596;SDS011;40226;50.874;4.394;2023-03-11T16:02:27;10.45;;;2.40;;
23596;SDS011;40226;50.874;4.394;2023-03-11T16:04:55;10.13;;;2.72;;
23596;SDS011;40226;50.874;4.394;2023-03-11T16:07:21;11.73;;;2.70;;
23596;SDS011;40226;50.874;4.394;2023-03-11T16:09:47;9.32;;;2.60;;
23596;SDS011;40226;50.874;4.394;2023-03-11T16:12:20;14.20;;;3.45;;
23596;SDS011;40226;50.874;4.394;2023-03-11T16:14:48;10.35;;;2.70;;
23596;SDS011;40226;50.874;4.394;2023-03-11T16:17:14;6.35;;;2.58;;
23596;SDS011;40226;50.874;4.394;2023-03-11T16:19:44;13.18;;;2.95;;
23596;SDS011;40226;50.874;4.394;2023-03-11T16:22:16;8.48;;;2.50;;
23596;SDS011;40226;50.874;4.394;2023-03-11T16:24:45;7.68;;;2.03;;
23596;SDS011;40226;50.874;4.394;2023-03-11T16:27:14;16.50;;;2.97;;
23596;SDS011;40226;50.874;4.394;2023-03-11T16:29:41;7.82;;;2.50;;
23596;SDS011;40226;50.874;4.394;2023-03-11T16:32:08;9.35;;;2.72;;
23596;SDS011;40226;50.874;4.394;2023-03-11T16:34:34;8.32;;;2.58;;
23596;SDS011;40226;50.874;4.394;2023-03-11T16:37:01;7.22;;;2.47;;
23596;SDS011;40226;50.874;4.394;2023-03-11T16:39:27;9.32;;;2.70;;
23596;SDS011;40226;50.874;4.394;2023-03-11T16:41:53;6.40;;;2.50;;
23596;SDS011;40226;50.874;4.394;2023-03-11T16:44:18;7.93;;;2.38;;
23596;SDS011;40226;50.874;4.394;2023-03-11T16:46:44;13.23;;;2.85;;
23596;SDS011;40226;50.874;4.394;2023-03-11T16:49:09;8.75;;;3.03;;
23596;SDS011;40226;50.874;4.394;2023-03-11T16:51:35;13.00;;;3.40;;
23596;SDS011;40226;50.874;4.394;2023-03-11T16:54:01;8.73;;;3.33;;